Versión en castellano
places Weather data articles

Conditions at Mairena del Aljarafe, Sevilla, Spain
Year Month Day Show

  Date        time        Out Temp.    Out hum.   Wind Dir.    Wind speed   SL Pressure   In T. Today rain 

   21-11-2018    04:35      12.8º(+0.1)     94%         -         0.0 km/h    1011.0 hpa     22.6º    0.0 mm
   21-11-2018    04:30      12.7º(+0.0)     94%         -         0.0 km/h    1011.0 hpa     22.6º    0.0 mm
   21-11-2018    04:25      12.7º(-0.0)     94%         -         0.0 km/h    1011.1 hpa     22.6º    0.0 mm
   21-11-2018    04:20      12.7º(-0.0)     94%         -         0.0 km/h    1011.2 hpa     22.6º    0.0 mm
   21-11-2018    04:15      12.6º(-0.1)     94%         -         0.0 km/h    1011.2 hpa     22.6º    0.0 mm
   21-11-2018    04:10      12.6º(-0.1)     94%         -         0.0 km/h    1011.2 hpa     22.6º    0.0 mm
   21-11-2018    04:05      12.6º(-0.1)     94%         -         0.0 km/h    1011.4 hpa     22.6º    0.0 mm
   21-11-2018    04:00      12.6º(-0.1)     94%         -         0.0 km/h    1011.3 hpa     22.6º    0.0 mm
   21-11-2018    03:55      12.6º(-0.1)     94%         -         0.0 km/h    1011.4 hpa     22.7º    0.0 mm
   21-11-2018    03:50      12.6º(-0.1)     94%         -         0.0 km/h    1011.4 hpa     22.7º    0.0 mm
   21-11-2018    03:45      12.6º(-0.2)     94%         -         0.0 km/h    1011.4 hpa     22.7º    0.0 mm
   21-11-2018    03:40      12.6º(-0.2)     94%         -         0.0 km/h    1011.4 hpa     22.7º    0.0 mm
   21-11-2018    03:35      12.4º(-0.4)     94%         -         0.0 km/h    1011.4 hpa     22.7º    0.0 mm
   21-11-2018    03:30      12.4º(-0.4)     94%         -         0.0 km/h    1011.4 hpa     22.7º    0.0 mm
   21-11-2018    03:25      12.4º(-0.5)     94%         -         0.0 km/h    1011.4 hpa     22.7º    0.0 mm
   21-11-2018    03:20      12.3º(-0.6)     94%         -         0.0 km/h    1011.3 hpa     22.8º    0.0 mm
   21-11-2018    03:15      12.3º(-0.6)     94%         -         0.0 km/h    1011.4 hpa     22.8º    0.0 mm
   21-11-2018    03:10      12.4º(-0.5)     94%         -         0.0 km/h    1011.4 hpa     22.8º    0.0 mm
   21-11-2018    03:05      12.4º(-0.5)     94%         -         0.0 km/h    1011.4 hpa     22.8º    0.0 mm
   21-11-2018    03:00      12.4º(-0.5)     94%         -         0.0 km/h    1011.3 hpa     22.8º    0.0 mm
   21-11-2018    02:55      12.4º(-0.5)     94%         -         0.0 km/h    1011.4 hpa     22.8º    0.0 mm
   21-11-2018    02:50      12.5º(-0.4)     94%         -         0.0 km/h    1011.4 hpa     22.8º    0.0 mm
   21-11-2018    02:45      12.6º(-0.3)     94%         -         0.0 km/h    1011.3 hpa     22.8º    0.0 mm
   21-11-2018    02:40      12.6º(-0.4)     94%         -         0.0 km/h    1011.3 hpa     22.8º    0.0 mm
   21-11-2018    02:35      12.7º(-0.2)     94%         -         0.0 km/h    1011.3 hpa     22.8º    0.0 mm
   21-11-2018    02:30      12.7º(-0.2)     94%         -         0.0 km/h    1011.3 hpa     22.8º    0.0 mm
   21-11-2018    02:25      12.7º(-0.2)     94%         -         0.0 km/h    1011.2 hpa     22.8º    0.0 mm
   21-11-2018    02:20      12.7º(-0.2)     94%         -         0.0 km/h    1011.4 hpa     22.8º    0.0 mm
   21-11-2018    02:15      12.7º(-0.2)     94%         -         0.0 km/h    1011.4 hpa     22.8º    0.0 mm
   21-11-2018    02:10      12.7º(-0.1)     94%         -         0.0 km/h    1011.4 hpa     22.8º    0.0 mm
   21-11-2018    02:05      12.7º(-0.1)     94%      225(SW)      1.6 km/h    1011.3 hpa     22.9º    0.0 mm
   21-11-2018    02:00      12.7º(-0.1)     94%      225(SW)      1.6 km/h    1011.4 hpa     22.9º    0.0 mm
   21-11-2018    01:55      12.7º(-0.1)     94%      225(SW)      1.6 km/h    1011.5 hpa     22.9º    0.0 mm
   21-11-2018    01:50      12.8º(-0.0)     94%      202 (S)      3.2 km/h    1011.5 hpa     22.9º    0.0 mm
   21-11-2018    01:45      12.8º(-0.0)     94%      202 (S)      3.2 km/h    1011.5 hpa     22.9º    0.0 mm
   21-11-2018    01:40      12.7º(-0.1)     94%      202 (S)      4.8 km/h    1011.5 hpa     22.9º    0.0 mm
   21-11-2018    01:35      12.7º(-0.0)     94%      180 (S)      3.2 km/h    1011.6 hpa     22.9º    0.0 mm
   21-11-2018    01:30      12.6º(-0.1)     94%      180 (S)      3.2 km/h    1011.6 hpa     22.9º    0.0 mm
   21-11-2018    01:25      12.5º(-0.2)     93%      180 (S)      1.6 km/h    1011.6 hpa     23.1º    0.0 mm
   21-11-2018    01:20      12.4º(-0.3)     93%      180 (S)      1.6 km/h    1011.7 hpa     23.1º    0.0 mm
   21-11-2018    01:15      12.4º(-0.2)     93%      180 (S)      1.6 km/h    1011.7 hpa     23.1º    0.0 mm
   21-11-2018    01:10      12.4º(-0.2)     93%      180 (S)      1.6 km/h    1011.7 hpa     23.1º    0.0 mm
   21-11-2018    01:05      12.6º(-0.0)     93%      225(SW)      1.6 km/h    1011.7 hpa     23.1º    0.0 mm
   21-11-2018    01:00      12.6º(+0.0)     93%      225(SW)      1.6 km/h    1011.8 hpa     23.1º    0.0 mm
   21-11-2018    00:55      12.7º(----)     92%      225(SW)      1.6 km/h    1011.7 hpa     23.1º    0.0 mm
   21-11-2018    00:50      12.8º(----)     93%      225(SW)      1.6 km/h    1011.7 hpa     23.1º    0.0 mm
   21-11-2018    00:45      12.8º(----)     93%      225(SW)      3.2 km/h    1011.7 hpa     23.1º    0.0 mm
   21-11-2018    00:40      12.8º(----)     93%      225(SW)      3.2 km/h    1011.7 hpa     23.2º    0.0 mm
   21-11-2018    00:35      12.8º(----)     93%      225(SW)      3.2 km/h    1011.7 hpa     23.2º    0.0 mm
   21-11-2018    00:30      12.8º(----)     92%      225(SW)      1.6 km/h    1011.6 hpa     23.2º    0.0 mm
   21-11-2018    00:25      12.8º(----)     92%      225(SW)      3.2 km/h    1011.5 hpa     23.2º    0.0 mm
   21-11-2018    00:20      12.9º(----)     92%      225(SW)      1.6 km/h    1011.5 hpa     23.2º    0.0 mm
   21-11-2018    00:15      12.9º(----)     92%      225(SW)      1.6 km/h    1011.4 hpa     23.2º    0.0 mm
   21-11-2018    00:10      13.1º(----)     92%      225(SW)      3.2 km/h    1011.4 hpa     23.2º    0.0 mm
   21-11-2018    00:05      13.1º(----)     92%      225(SW)      3.2 km/h    1011.2 hpa     23.3º    0.0 mm
   21-11-2018    00:00      13.1º(----)     92%      225(SW)      3.2 km/h    1011.2 hpa     23.3º    0.0 mm